Time;durP1;ratioP1;P1;durP2;ratioP2;P2;SDS_P1;SDS_P2;PMS_P1;PMS_P2;Temp;Humidity;BMP_temperature;BMP_pressure;BME280_temperature;BME280_humidity;BME280_pressure;Samples;Min_cycle;Max_cycle;Signal;HPM_P1;HPM_P2
2021/12/04 00:04:53;;;;;;;15.50;12.18;;;;;;;3.14;100.00;100559.22;10541498;28;20047;-58
2021/12/04 00:09:59;;;;;;;17.48;11.88;;;;;;;3.30;100.00;100557.00;10541421;28;20052;-57
2021/12/04 00:15:02;;;;;;;16.08;12.30;;;;;;;3.14;100.00;100535.94;10541256;28;20499;-57
2021/12/04 00:20:06;;;;;;;16.83;12.65;;;;;;;3.17;100.00;100522.03;10540862;28;20097;-58
2021/12/04 00:25:09;;;;;;;16.92;11.38;;;;;;;3.37;100.00;100524.00;10541100;28;20047;-58
2021/12/04 00:30:12;;;;;;;20.00;13.73;;;;;;;3.40;100.00;100528.25;10540684;28;20558;-57
2021/12/04 00:35:33;;;;;;;18.33;12.75;;;;;;;3.24;100.00;100507.16;10540511;28;20052;-57
2021/12/04 00:51:18;;;;;;;17.25;12.18;;;;;;;3.24;100.00;100509.75;10540080;28;20048;-56
2021/12/04 00:56:22;;;;;;;12.82;10.95;;;;;;;3.19;100.00;100516.81;10540514;28;20048;-60
2021/12/04 01:01:24;;;;;;;10.00;8.88;;;;;;;3.30;100.00;100517.34;10521792;28;20492;-57
2021/12/04 01:06:27;;;;;;;12.38;11.07;;;;;;;3.28;100.00;100516.53;10540254;28;20048;-56
2021/12/04 01:11:29;;;;;;;13.43;11.68;;;;;;;3.28;100.00;100511.38;10539791;28;20055;-57
2021/12/04 01:16:33;;;;;;;13.23;10.43;;;;;;;3.29;100.00;100518.22;10540157;28;20043;-56
2021/12/04 01:21:36;;;;;;;14.02;11.30;;;;;;;3.41;100.00;100525.56;10539174;28;20069;-58
2021/12/04 01:26:39;;;;;;;16.42;10.85;;;;;;;3.40;100.00;100523.06;10539476;28;20054;-57
2021/12/04 01:31:41;;;;;;;12.48;10.15;;;;;;;3.47;100.00;100543.50;10539167;28;20044;-57
2021/12/04 01:36:44;;;;;;;14.00;11.95;;;;;;;3.27;100.00;100517.44;10539178;28;20488;-54
2021/12/04 01:41:46;;;;;;;9.40;8.13;;;;;;;3.43;100.00;100526.41;10538887;28;20048;-56
2021/12/04 01:46:49;;;;;;;15.23;10.35;;;;;;;3.33;100.00;100515.50;10524340;28;20048;-56
2021/12/04 01:51:51;;;;;;;9.15;7.90;;;;;;;3.35;100.00;100516.28;10547709;28;20040;-55
2021/12/04 01:56:53;;;;;;;17.55;9.70;;;;;;;3.43;100.00;100500.53;10546807;28;20058;-54
2021/12/04 02:01:57;;;;;;;12.73;10.32;;;;;;;3.40;100.00;100495.44;10528416;28;20504;-56
2021/12/04 02:07:03;;;;;;;7.88;7.10;;;;;;;3.35;100.00;100499.91;10546304;28;20052;-55
2021/12/04 02:12:08;;;;;;;13.88;10.52;;;;;;;3.46;100.00;100497.84;10546358;28;20063;-57
2021/12/04 02:17:10;;;;;;;9.85;8.82;;;;;;;3.27;100.00;100482.03;10528438;28;20044;-55
2021/12/04 02:22:13;;;;;;;10.70;9.20;;;;;;;3.20;100.00;100470.19;10545941;28;20044;-54
2021/12/04 02:27:15;;;;;;;11.75;10.40;;;;;;;3.15;100.00;100446.22;10546022;28;20059;-55
2021/12/04 02:32:20;;;;;;;10.05;9.02;;;;;;;3.16;100.00;100433.25;10545251;28;20507;-58
2021/12/04 02:37:22;;;;;;;11.90;9.90;;;;;;;3.19;100.00;100421.94;10545334;28;20059;-55
2021/12/04 02:42:28;;;;;;;9.38;8.40;;;;;;;3.40;100.00;100433.31;10545041;28;20073;-56
2021/12/04 02:47:30;;;;;;;15.40;11.10;;;;;;;3.26;100.00;100417.41;10544881;28;20376;-57
2021/12/04 02:52:33;;;;;;;16.52;10.85;;;;;;;3.22;100.00;100423.59;10544629;28;20075;-57
2021/12/04 02:57:40;;;;;;;13.20;11.02;;;;;;;3.33;100.00;100409.41;10543320;28;20058;-55
2021/12/04 03:02:43;;;;;;;10.85;9.70;;;;;;;3.34;100.00;100403.31;10543833;28;20048;-55
2021/12/04 03:07:46;;;;;;;11.65;9.77;;;;;;;3.26;100.00;100392.41;10543972;28;20087;-55
2021/12/04 03:12:48;;;;;;;11.32;9.15;;;;;;;3.41;100.00;100400.50;10543885;28;20051;-59
2021/12/04 03:17:51;;;;;;;13.52;10.35;;;;;;;3.47;100.00;100405.50;10544123;28;20048;-55
2021/12/04 03:22:59;;;;;;;11.98;10.50;;;;;;;3.37;100.00;100411.88;10525367;28;20052;-58
2021/12/04 03:28:05;;;;;;;16.25;11.02;;;;;;;3.40;100.00;100386.75;10543615;28;20044;-57
2021/12/04 03:43:50;;;;;;;17.10;12.23;;;;;;;3.37;100.00;100366.13;10542388;28;20051;-57
2021/12/04 03:48:53;;;;;;;19.85;12.45;;;;;;;3.47;100.00;100367.50;10542287;28;20054;-53
2021/12/04 03:53:55;;;;;;;18.80;12.23;;;;;;;3.34;100.00;100361.06;10542194;28;20055;-55
2021/12/04 03:58:57;;;;;;;21.30;13.18;;;;;;;3.38;100.00;100354.91;10542401;28;20044;-58
2021/12/04 04:04:00;;;;;;;20.05;14.30;;;;;;;3.44;100.00;100359.84;10541778;28;20044;-55
2021/12/04 04:09:04;;;;;;;21.75;13.90;;;;;;;3.43;100.00;100349.53;10541348;28;20059;-55
2021/12/04 04:14:06;;;;;;;21.45;12.65;;;;;;;3.44;100.00;100346.91;10541517;28;20048;-56
2021/12/04 04:19:09;;;;;;;23.42;13.82;;;;;;;3.53;100.00;100344.00;10541411;28;20054;-57
2021/12/04 04:24:17;;;;;;;20.25;13.50;;;;;;;3.44;100.00;100333.13;10541084;28;20055;-58
2021/12/04 04:29:20;;;;;;;25.52;13.55;;;;;;;3.53;100.00;100333.66;10540749;28;20408;-57
2021/12/04 04:34:33;;;;;;;23.73;13.55;;;;;;;3.41;100.00;100330.66;10540541;28;20443;-52
2021/12/04 05:11:37;;;;;;;21.92;15.48;;;;;;;3.54;100.00;100352.59;10539725;28;20056;-55
2021/12/04 05:16:50;;;;;;;26.63;16.27;;;;;;;3.85;100.00;100404.16;10539726;28;20126;-56
2021/12/04 05:21:53;;;;;;;22.10;14.15;;;;;;;3.81;100.00;100350.75;10542649;28;20045;-51
2021/12/04 05:26:56;;;;;;;24.65;14.60;;;;;;;3.61;100.00;100328.19;10547968;28;20044;-55
2021/12/04 05:31:58;;;;;;;29.50;16.70;;;;;;;3.58;100.00;100325.72;10529714;28;20044;-60
2021/12/04 05:37:01;;;;;;;25.75;16.17;;;;;;;3.62;100.00;100319.53;10548475;28;20055;-56
2021/12/04 05:42:03;;;;;;;26.77;15.77;;;;;;;3.62;100.00;100310.94;10547565;28;20048;-56
2021/12/04 05:47:28;;;;;;;25.67;16.42;;;;;;;3.59;100.00;100303.28;10547254;28;20510;-56
2021/12/04 05:57:39;;;;;;;24.13;15.77;;;;;;;3.57;100.00;100308.50;10547405;28;20054;-54
2021/12/04 06:02:42;;;;;;;28.95;18.33;;;;;;;3.54;100.00;100309.44;10546761;28;20040;-54
2021/12/04 06:07:44;;;;;;;28.13;17.02;;;;;;;3.56;100.00;100308.56;10546609;28;20040;-54
2021/12/04 06:12:47;;;;;;;24.05;16.08;;;;;;;3.50;100.00;100300.09;10546339;28;20054;-54
2021/12/04 06:17:51;;;;;;;22.92;15.90;;;;;;;3.67;100.00;100306.44;10546183;28;20050;-55
2021/12/04 06:22:54;;;;;;;21.80;15.70;;;;;;;3.52;100.00;100292.28;10546312;28;20070;-54
2021/12/04 06:27:57;;;;;;;22.50;15.82;;;;;;;3.62;100.00;100304.00;10546321;28;20044;-54
2021/12/04 06:32:59;;;;;;;24.05;15.65;;;;;;;3.58;100.00;100298.97;10545422;28;20047;-53
2021/12/04 06:38:02;;;;;;;27.88;17.60;;;;;;;3.67;100.00;100296.91;10545927;28;20047;-54
2021/12/04 06:43:09;;;;;;;23.83;16.98;;;;;;;3.76;100.00;100300.06;10527817;28;20040;-55
2021/12/04 06:48:19;;;;;;;28.92;17.65;;;;;;;3.56;100.00;100278.31;10545260;28;20044;-53
2021/12/04 06:58:26;;;;;;;31.17;17.10;;;;;;;3.75;100.00;100280.22;10545059;28;20403;-55
2021/12/04 07:03:30;;;;;;;22.15;17.30;;;;;;;3.61;100.00;100276.41;10544429;28;20051;-56
2021/12/04 07:08:32;;;;;;;25.83;17.30;;;;;;;3.60;100.00;100273.88;10544002;28;20044;-57
2021/12/04 07:13:34;;;;;;;22.52;17.08;;;;;;;3.51;100.00;100262.97;10544119;28;20052;-57
2021/12/04 07:18:38;;;;;;;26.83;17.65;;;;;;;3.66;100.00;100268.47;10543772;28;20123;-54
2021/12/04 07:23:41;;;;;;;35.88;18.80;;;;;;;3.58;100.00;100255.84;10543866;28;20055;-53
2021/12/04 07:28:43;;;;;;;33.28;20.30;;;;;;;3.52;100.00;100261.22;10543378;28;20052;-55
2021/12/04 07:33:46;;;;;;;29.05;18.80;;;;;;;3.51;100.00;100265.56;10543426;28;20044;-54
2021/12/04 07:38:48;;;;;;;36.45;20.50;;;;;;;3.47;100.00;100269.16;10543036;28;20054;-58
2021/12/04 07:43:51;;;;;;;38.70;22.38;;;;;;;3.63;100.00;100268.59;10541930;28;20043;-54
2021/12/04 07:48:53;;;;;;;29.42;21.05;;;;;;;3.61;100.00;100260.88;10542979;28;20056;-56
2021/12/04 07:53:55;;;;;;;33.65;21.00;;;;;;;3.63;100.00;100264.28;10542279;28;20055;-58
2021/12/04 07:58:59;;;;;;;31.17;19.20;;;;;;;3.67;100.00;100262.41;10542730;28;20044;-55
2021/12/04 08:04:01;;;;;;;32.85;19.92;;;;;;;3.99;100.00;100268.13;10541541;28;20408;-55
2021/12/04 08:09:04;;;;;;;31.42;20.42;;;;;;;3.89;100.00;100281.41;10541254;28;20407;-57
2021/12/04 08:14:06;;;;;;;32.30;20.48;;;;;;;3.92;100.00;100264.91;10541224;28;20446;-56
2021/12/04 08:19:09;;;;;;;23.80;16.67;;;;;;;4.08;100.00;100260.84;10541410;28;20044;-53
2021/12/04 08:24:11;;;;;;;27.35;18.02;;;;;;;3.81;100.00;100244.59;10540905;28;20058;-57
2021/12/04 08:29:13;;;;;;;27.15;17.10;;;;;;;4.02;100.00;100249.88;10541006;28;20051;-54
2021/12/04 08:34:16;;;;;;;25.10;16.50;;;;;;;4.01;100.00;100254.19;10541225;28;20055;-55
2021/12/04 08:39:20;;;;;;;29.10;18.30;;;;;;;4.20;100.00;100251.75;10540507;28;20411;-56
2021/12/04 08:44:23;;;;;;;33.00;18.70;;;;;;;4.06;100.00;100251.44;10540728;28;20044;-57
2021/12/04 08:49:26;;;;;;;30.48;19.17;;;;;;;4.03;100.00;100239.41;10539979;28;20055;-54
2021/12/04 08:54:29;;;;;;;27.33;17.95;;;;;;;4.17;100.00;100225.94;10521520;28;20050;-59
2021/12/04 08:59:34;;;;;;;28.20;19.20;;;;;;;3.94;100.00;100208.72;10539900;28;20051;-54
2021/12/04 09:04:36;;;;;;;28.73;17.95;;;;;;;4.04;100.00;100216.97;10539622;28;20052;-55
2021/12/04 09:09:39;;;;;;;35.72;19.35;;;;;;;4.16;100.00;100198.34;10539680;28;20052;-58
2021/12/04 09:14:56;;;;;;;33.25;20.27;;;;;;;4.11;100.00;100189.06;10540196;28;20062;-57
2021/12/04 09:19:59;;;;;;;37.55;20.42;;;;;;;4.04;100.00;100193.66;10521692;28;20408;-57
2021/12/04 09:25:09;;;;;;;40.63;21.08;;;;;;;4.15;100.00;100188.88;10539636;28;20044;-58
2021/12/04 10:02:22;;;;;;;34.58;17.98;;;;;;;4.32;100.00;100153.66;10539336;28;20051;-54
2021/12/04 10:33:43;;;;;;;26.85;18.35;;;;;;;4.36;100.00;100118.94;10545325;28;20048;-53
2021/12/04 10:38:46;;;;;;;27.00;16.63;;;;;;;4.72;100.00;100137.22;10545484;28;20040;-55
2021/12/04 10:43:48;;;;;;;24.23;15.90;;;;;;;4.54;100.00;100119.88;10527327;28;20044;-56
2021/12/04 10:49:01;;;;;;;25.27;16.50;;;;;;;4.28;100.00;100111.47;10544947;28;20052;-55
2021/12/04 10:54:23;;;;;;;28.55;16.52;;;;;;;4.43;100.00;100091.84;10545172;28;20403;-54
2021/12/04 10:59:34;;;;;;;24.48;16.65;;;;;;;4.31;100.00;100093.22;10544334;28;20044;-56
2021/12/04 11:04:42;;;;;;;33.03;17.88;;;;;;;4.47;100.00;100080.41;10544363;28;20051;-55
2021/12/04 11:46:43;;;;;;;19.50;14.98;;;;;;;4.72;100.00;100012.75;10542453;28;20431;-57
2021/12/04 11:51:59;;;;;;;22.08;15.80;;;;;;;4.61;100.00;100002.88;10542320;28;20052;-57
2021/12/04 11:57:14;;;;;;;18.90;13.80;;;;;;;4.70;100.00;99999.03;10524730;28;20044;-56
2021/12/04 12:02:24;;;;;;;17.00;13.80;;;;;;;4.80;100.00;99999.44;10542035;28;20488;-57
2021/12/04 12:07:29;;;;;;;21.65;15.13;;;;;;;4.92;100.00;100003.22;10542050;28;20052;-57
2021/12/04 12:12:34;;;;;;;20.95;15.57;;;;;;;4.57;100.00;99992.72;10542380;28;20051;-54
2021/12/04 12:17:40;;;;;;;22.50;16.10;;;;;;;4.38;100.00;99972.81;10541866;28;20054;-56
2021/12/04 12:22:47;;;;;;;21.90;16.65;;;;;;;4.57;100.00;99972.84;10523439;28;20071;-57
2021/12/04 12:38:53;;;;;;;22.40;16.67;;;;;;;4.61;100.00;99982.16;10486257;28;20043;-55
2021/12/04 12:44:22;;;;;;;20.70;15.82;;;;;;;4.52;100.00;99969.59;10512402;28;20058;-56
2021/12/04 12:49:36;;;;;;;19.75;14.82;;;;;;;4.61;100.00;99974.38;10540695;28;20050;-56
2021/12/04 12:54:39;;;;;;;29.23;19.35;;;;;;;4.62;100.00;99959.63;10540090;28;20484;-54
2021/12/04 13:15:38;;;;;;;25.55;16.85;;;;;;;4.62;100.00;99939.75;10539584;28;20097;-55
2021/12/04 13:20:40;;;;;;;23.10;15.30;;;;;;;4.82;100.00;99948.34;10539615;28;20044;-56
2021/12/04 13:26:10;;;;;;;19.98;14.38;;;;;;;5.01;100.00;99950.94;10539190;28;20044;-53
2021/12/04 13:31:13;;;;;;;16.98;12.77;;;;;;;5.07;100.00;99948.00;10536574;28;20048;-57
2021/12/04 13:36:22;;;;;;;23.88;17.65;;;;;;;4.66;100.00;99924.91;10521697;28;20109;-54
2021/12/04 13:41:25;;;;;;;25.50;17.42;;;;;;;4.48;100.00;99918.81;10539871;28;20048;-57
2021/12/04 13:46:28;;;;;;;24.40;16.75;;;;;;;4.70;100.00;99941.16;10548288;28;20048;-57
2021/12/04 13:51:30;;;;;;;25.95;17.73;;;;;;;4.64;100.00;99935.34;10529402;28;20040;-55
2021/12/04 13:56:33;;;;;;;31.10;17.70;;;;;;;4.78;100.00;99950.25;10547084;28;20399;-55
2021/12/04 14:01:42;;;;;;;24.20;16.48;;;;;;;4.78;100.00;99947.66;10546606;28;20503;-54
2021/12/04 14:06:51;;;;;;;20.63;14.82;;;;;;;4.60;100.00;99941.56;10546582;28;20543;-54
2021/12/04 14:11:53;;;;;;;22.00;15.30;;;;;;;4.76;100.00;99949.47;10547190;28;20058;-57
2021/12/04 14:17:03;;;;;;;16.50;13.32;;;;;;;4.70;100.00;99941.16;10546275;28;20505;-57
2021/12/04 14:22:15;;;;;;;22.90;15.30;;;;;;;4.98;100.00;99951.06;10546338;28;20051;-53
2021/12/04 14:27:23;;;;;;;19.13;14.38;;;;;;;4.75;100.00;99941.78;10545759;28;20496;-58
2021/12/04 14:32:32;;;;;;;20.27;14.30;;;;;;;4.95;100.00;99953.81;10546167;28;20048;-55
2021/12/04 14:37:37;;;;;;;21.88;16.48;;;;;;;4.82;100.00;99937.97;10545930;28;20062;-57
2021/12/04 14:42:40;;;;;;;20.90;15.27;;;;;;;4.74;100.00;99934.88;10545154;28;20047;-57
2021/12/04 14:47:46;;;;;;;16.92;12.68;;;;;;;4.77;100.00;99937.34;10545401;28;20439;-58
2021/12/04 14:52:51;;;;;;;17.20;12.90;;;;;;;4.81;100.00;99942.31;10526777;28;20066;-55
2021/12/04 14:57:54;;;;;;;19.15;14.07;;;;;;;4.75;100.00;99940.00;10544969;28;20052;-58
2021/12/04 15:03:08;;;;;;;15.98;11.88;;;;;;;4.79;100.00;99948.47;10544104;28;20044;-56
2021/12/04 15:08:17;;;;;;;17.30;13.30;;;;;;;4.98;100.00;99964.03;10544274;28;20048;-57
2021/12/04 15:13:22;;;;;;;29.00;16.90;;;;;;;4.86;100.00;99956.81;10525831;28;20044;-59
2021/12/04 15:18:36;;;;;;;27.15;17.55;;;;;;;4.71;100.00;99955.78;10544140;28;20055;-56
2021/12/04 15:23:57;;;;;;;22.95;16.38;;;;;;;4.82;100.00;99977.72;10543638;28;20055;-57
2021/12/04 15:29:00;;;;;;;27.05;16.90;;;;;;;4.78;100.00;99977.94;10543998;28;20052;-56
2021/12/04 15:34:02;;;;;;;25.42;15.75;;;;;;;4.75;100.00;99986.69;10543219;28;20044;-56
2021/12/04 15:39:11;;;;;;;19.80;14.40;;;;;;;4.86;100.00;99993.13;10543128;28;20044;-54
2021/12/04 15:44:42;;;;;;;24.48;16.80;;;;;;;4.77;100.00;99987.44;10542858;28;20056;-53
2021/12/04 15:55:02;;;;;;;25.13;15.52;;;;;;;4.77;100.00;100033.31;10542327;28;20056;-56
2021/12/04 16:00:11;;;;;;;20.83;15.18;;;;;;;4.82;100.00;100052.09;10543084;28;20132;-56
2021/12/04 16:05:19;;;;;;;24.35;16.27;;;;;;;4.81;100.00;100055.59;10523532;28;20064;-54
2021/12/04 16:10:23;;;;;;;23.08;16.05;;;;;;;4.75;100.00;100064.50;10541293;28;20055;-55
2021/12/04 16:15:26;;;;;;;22.52;14.15;;;;;;;4.77;100.00;100073.03;10541990;28;20048;-55
2021/12/04 16:20:30;;;;;;;19.95;13.32;;;;;;;4.74;100.00;100078.38;10541340;28;20559;-58
2021/12/04 16:25:39;;;;;;;25.33;12.30;;;;;;;4.69;100.00;100080.34;10541596;28;20044;-58
2021/12/04 16:41:50;;;;;;;23.92;14.18;;;;;;;4.75;100.00;100097.38;10527614;28;20400;-59
2021/12/04 16:46:53;;;;;;;30.13;14.60;;;;;;;4.60;100.00;100101.47;10540746;28;20055;-58
2021/12/04 16:57:26;;;;;;;25.67;14.18;;;;;;;4.71;100.00;100122.59;10540534;28;20048;-59
2021/12/04 17:02:28;;;;;;;27.48;13.95;;;;;;;4.71;100.00;100129.50;10539750;28;20133;-56
2021/12/04 17:07:32;;;;;;;26.38;11.57;;;;;;;4.70;100.00;100138.22;10540230;28;20083;-58
2021/12/04 17:12:37;;;;;;;25.70;13.90;;;;;;;4.61;100.00;100145.50;10539376;28;20052;-59
2021/12/04 17:17:44;;;;;;;18.95;11.23;;;;;;;4.62;100.00;100148.91;10538772;28;20044;-58
2021/12/04 17:22:48;;;;;;;23.85;12.40;;;;;;;4.70;100.00;100158.97;10539422;28;20048;-57
2021/12/04 17:27:51;;;;;;;25.52;12.70;;;;;;;4.61;100.00;100148.09;10540146;28;20044;-56
2021/12/04 17:32:53;;;;;;;17.63;12.15;;;;;;;4.68;100.00;100153.84;10521206;28;20506;-58
2021/12/04 17:37:57;;;;;;;20.48;11.82;;;;;;;4.66;100.00;100150.47;10539911;28;20044;-56
2021/12/04 17:43:00;;;;;;;20.73;11.02;;;;;;;4.59;100.00;100157.69;10521723;28;20055;-58
2021/12/04 17:48:05;;;;;;;16.33;10.02;;;;;;;4.56;100.00;100164.75;10539706;28;20075;-59
2021/12/04 17:53:08;;;;;;;19.10;12.27;;;;;;;4.44;100.00;100154.00;10538874;28;20443;-61
2021/12/04 17:58:12;;;;;;;20.65;11.80;;;;;;;4.37;100.00;100159.47;10539154;28;20048;-58
2021/12/04 18:03:20;;;;;;;18.38;9.82;;;;;;;4.32;100.00;100166.59;10538810;28;20055;-55
2021/12/04 18:08:23;;;;;;;11.80;8.52;;;;;;;4.32;100.00;100164.88;10538931;28;20052;-58
2021/12/04 18:13:32;;;;;;;17.65;7.78;;;;;;;4.18;100.00;100159.41;10538537;28;20048;-56
2021/12/04 18:18:36;;;;;;;20.73;7.47;;;;;;;4.18;100.00;100174.97;10538857;28;20059;-57
2021/12/04 18:23:38;;;;;;;12.20;7.18;;;;;;;4.24;100.00;100191.09;10538173;28;20040;-59
2021/12/04 18:28:41;;;;;;;9.27;6.32;;;;;;;4.21;100.00;100185.19;10541173;28;20048;-57
2021/12/04 18:33:43;;;;;;;15.25;6.22;;;;;;;4.06;100.00;100184.91;10545691;28;20051;-54
2021/12/04 18:38:46;;;;;;;18.77;7.45;;;;;;;3.92;100.00;100184.63;10545508;28;20048;-55
2021/12/04 18:43:55;;;;;;;9.35;5.25;;;;;;;3.87;100.00;100189.16;10527231;28;20047;-60
2021/12/04 18:49:02;;;;;;;15.55;5.60;;;;;;;3.82;100.00;100196.25;10544986;28;20416;-56
2021/12/04 18:54:05;;;;;;;10.55;5.82;;;;;;;3.68;100.00;100192.44;10544774;28;20050;-56
2021/12/04 18:59:08;;;;;;;13.02;4.60;;;;;;;3.70;100.00;100200.16;10544611;28;20484;-58
2021/12/04 19:04:11;;;;;;;12.60;4.75;;;;;;;3.80;100.00;100206.66;10526901;28;20077;-56
2021/12/04 19:09:14;;;;;;;14.77;5.28;;;;;;;3.72;100.00;100201.78;10544293;28;20055;-56
2021/12/04 19:14:19;;;;;;;11.95;4.35;;;;;;;3.79;100.00;100207.56;10543819;28;20052;-55
2021/12/04 19:19:22;;;;;;;11.45;3.95;;;;;;;3.71;100.00;100202.66;10543876;28;20055;-54
2021/12/04 19:24:24;;;;;;;11.70;4.18;;;;;;;3.71;100.00;100207.84;10543675;28;20055;-58
2021/12/04 19:29:28;;;;;;;19.15;5.50;;;;;;;3.69;100.00;100199.28;10543221;28;20055;-58
2021/12/04 19:50:46;;;;;;;9.48;3.00;;;;;;;3.53;100.00;100209.41;10542510;28;20415;-55
2021/12/04 19:55:53;;;;;;;18.80;4.60;;;;;;;3.44;100.00;100198.56;10542932;28;20047;-56
2021/12/04 20:01:10;;;;;;;9.77;2.58;;;;;;;3.27;100.00;100201.75;10541974;28;20051;-55
2021/12/04 20:06:42;;;;;;;11.57;3.47;;;;;;;3.22;100.00;100214.03;10543035;28;20048;-56
2021/12/04 20:16:57;;;;;;;8.73;3.17;;;;;;;3.16;100.00;100221.09;10541602;28;20480;-56
2021/12/04 20:22:02;;;;;;;11.68;2.83;;;;;;;3.00;100.00;100217.38;10541319;28;20392;-57
2021/12/04 20:27:08;;;;;;;7.65;2.17;;;;;;;3.12;100.00;100229.03;10540860;28;20405;-58
2021/12/04 21:52:15;;;;;;;22.70;10.73;;;;;;;3.28;100.00;100250.88;10539169;28;20407;-58
2021/12/04 22:24:16;;;;;;;15.10;7.13;;;;;;;3.22;100.00;100265.75;10545891;28;20052;-59
2021/12/04 22:56:50;;;;;;;12.98;7.57;;;;;;;3.32;100.00;100270.53;10544806;28;20052;-57
2021/12/04 23:01:29;;;;;;;23.80;5.78;;;;;;;3.26;100.00;100273.38;10538811;28;20508;-56
2021/12/04 23:12:05;;;;;;;18.10;5.93;;;;;;;3.29;100.00;100265.47;10544525;28;20056;-57
2021/12/04 23:33:36;;;;;;;17.25;5.13;;;;;;;3.27;100.00;100280.22;10543871;28;20044;-58
2021/12/04 23:43:52;;;;;;;14.48;5.50;;;;;;;3.14;100.00;100266.03;10542834;28;20483;-53
